Kouros — A8QD7 — position and weather

sailwx.info

Track history (hours):
 
Tides and Currents Weather Stations Pressure Air Temp Water Temp Dewpoint Dewpoint Depression Visibility Wind Speed Wind Dir Waves Ship Positions

Kouros

Last reported at 2017-Sep-14 00:08 UTC. Time now 2017-Sep-20 23:52 UTC.
Position N 18°39' W 094°28'.

Length 183 m; draft 9.5 m.

Type: Tanker. MMSI: 636013897.

Date/timePositionNaut miles runAvg speedWind from/ knotsBaromVisibWave heightAir tempDewpointWater temp
2017-Sep-14 00:08N 18°39' W 094°28'212.7
2017-Sep-14 00:00N 18°40' W 094°28'612.7
2017-Sep-13 23:30N 18°47' W 094°30'612.5
2017-Sep-13 23:00N 18°53' W 094°31'1212.1
2017-Sep-13 22:02N 19°04' W 094°33'512.0
2017-Sep-13 21:39N 19°09' W 094°34'212.0
2017-Sep-13 21:30N 19°11' W 094°34'612.1
2017-Sep-13 20:59N 19°17' W 094°35'612.1
2017-Sep-13 20:29N 19°23' W 094°36'612.2
2017-Sep-13 20:00N 19°28' W 094°38'612.1
2017-Sep-13 19:30N 19°34' W 094°39'612.0
2017-Sep-13 19:00N 19°40' W 094°40'612.0
2017-Sep-13 18:30N 19°46' W 094°41'612.0
2017-Sep-13 18:00N 19°52' W 094°42'611.8
2017-Sep-13 17:30N 19°58' W 094°43'1911.7
2017-Sep-13 15:51N 20°17' W 094°47'  
Track history (hours):
 
Tides and Currents Weather Stations Pressure Air Temp Water Temp Dewpoint Dewpoint Depression Visibility Wind Speed Wind Dir Waves Ship Positions

Kouros

Last reported at 2017-Sep-14 00:08 UTC. Time now 2017-Sep-20 23:52 UTC.
Position N 18°39' W 094°28'.

Length 183 m; draft 9.5 m.

Type: Tanker. MMSI: 636013897.

Date/timePositionNaut miles runAvg speedWind from/ knotsBaromVisibWave heightAir tempDewpointWater temp
2017-Sep-14 00:08N 18°39' W 094°28'212.7
2017-Sep-14 00:00N 18°40' W 094°28'612.7
2017-Sep-13 23:30N 18°47' W 094°30'612.5
2017-Sep-13 23:00N 18°53' W 094°31'1212.1
2017-Sep-13 22:02N 19°04' W 094°33'512.0
2017-Sep-13 21:39N 19°09' W 094°34'212.0
2017-Sep-13 21:30N 19°11' W 094°34'612.1
2017-Sep-13 20:59N 19°17' W 094°35'612.1
2017-Sep-13 20:29N 19°23' W 094°36'612.2
2017-Sep-13 20:00N 19°28' W 094°38'612.1
2017-Sep-13 19:30N 19°34' W 094°39'612.0
2017-Sep-13 19:00N 19°40' W 094°40'612.0
2017-Sep-13 18:30N 19°46' W 094°41'612.0
2017-Sep-13 18:00N 19°52' W 094°42'611.8
2017-Sep-13 17:30N 19°58' W 094°43'1911.7
2017-Sep-13 15:51N 20°17' W 094°47'  

Dump ship's entire track history